sensor_id;sensor_type;location;lat;lon;timestamp;temperature;humidity
35678;DHT22;21791;42.828;74.582;2023-02-28T00:01:27;-2.60;99.90
35678;DHT22;21791;42.828;74.582;2023-02-28T00:03:53;-2.70;99.90
35678;DHT22;21791;42.828;74.582;2023-02-28T00:06:20;-2.70;99.90
35678;DHT22;21791;42.828;74.582;2023-02-28T00:08:46;-2.70;99.90
35678;DHT22;21791;42.828;74.582;2023-02-28T00:11:15;-2.60;99.90
35678;DHT22;21791;42.828;74.582;2023-02-28T00:13:44;-2.60;99.90
35678;DHT22;21791;42.828;74.582;2023-02-28T00:16:20;-2.60;99.90
35678;DHT22;21791;42.828;74.582;2023-02-28T00:18:47;-2.20;99.90
35678;DHT22;21791;42.828;74.582;2023-02-28T00:21:15;-2.30;99.90
35678;DHT22;21791;42.828;74.582;2023-02-28T00:23:41;-2.40;99.90
35678;DHT22;21791;42.828;74.582;2023-02-28T00:26:08;-2.50;99.90
35678;DHT22;21791;42.828;74.582;2023-02-28T00:28:34;-2.50;99.90
35678;DHT22;21791;42.828;74.582;2023-02-28T00:31:01;-2.40;99.90
35678;DHT22;21791;42.828;74.582;2023-02-28T00:33:28;-2.40;99.90
35678;DHT22;21791;42.828;74.582;2023-02-28T00:36:05;-2.50;99.90
35678;DHT22;21791;42.828;74.582;2023-02-28T00:38:32;-2.50;99.90
35678;DHT22;21791;42.828;74.582;2023-02-28T00:40:58;-2.70;99.90
35678;DHT22;21791;42.828;74.582;2023-02-28T00:43:34;-2.80;99.90
35678;DHT22;21791;42.828;74.582;2023-02-28T00:46:01;-2.90;99.90
35678;DHT22;21791;42.828;74.582;2023-02-28T00:48:28;-3.00;99.90
35678;DHT22;21791;42.828;74.582;2023-02-28T00:50:54;-3.00;99.90
35678;DHT22;21791;42.828;74.582;2023-02-28T00:53:21;-3.00;99.90
35678;DHT22;21791;42.828;74.582;2023-02-28T00:55:49;-2.90;99.90
35678;DHT22;21791;42.828;74.582;2023-02-28T00:58:15;-3.10;99.90
35678;DHT22;21791;42.828;74.582;2023-02-28T01:00:42;-3.10;99.90
35678;DHT22;21791;42.828;74.582;2023-02-28T01:03:08;-3.10;99.90
35678;DHT22;21791;42.828;74.582;2023-02-28T01:05:35;-3.00;99.90
35678;DHT22;21791;42.828;74.582;2023-02-28T01:08:01;-3.10;99.90
35678;DHT22;21791;42.828;74.582;2023-02-28T01:10:28;-3.20;99.90
35678;DHT22;21791;42.828;74.582;2023-02-28T01:12:57;-3.30;99.90
35678;DHT22;21791;42.828;74.582;2023-02-28T01:15:23;-3.30;99.90
35678;DHT22;21791;42.828;74.582;2023-02-28T01:17:50;-3.40;99.90
35678;DHT22;21791;42.828;74.582;2023-02-28T01:20:17;-3.20;99.90
35678;DHT22;21791;42.828;74.582;2023-02-28T01:22:43;-3.20;99.90
35678;DHT22;21791;42.828;74.582;2023-02-28T01:25:09;-3.20;99.90
35678;DHT22;21791;42.828;74.582;2023-02-28T01:27:36;-3.30;99.90
35678;DHT22;21791;42.828;74.582;2023-02-28T01:30:03;-3.20;99.90
35678;DHT22;21791;42.828;74.582;2023-02-28T01:32:32;-3.20;99.90
35678;DHT22;21791;42.828;74.582;2023-02-28T01:34:59;-3.10;99.90
35678;DHT22;21791;42.828;74.582;2023-02-28T01:37:25;-3.10;99.90
35678;DHT22;21791;42.828;74.582;2023-02-28T01:39:53;-3.10;99.90
35678;DHT22;21791;42.828;74.582;2023-02-28T01:42:19;-3.10;99.90
35678;DHT22;21791;42.828;74.582;2023-02-28T01:47:38;-3.10;99.90
35678;DHT22;21791;42.828;74.582;2023-02-28T01:50:09;-3.10;99.90
35678;DHT22;21791;42.828;74.582;2023-02-28T01:52:38;-2.80;99.90
35678;DHT22;21791;42.828;74.582;2023-02-28T01:55:07;-2.80;99.90
35678;DHT22;21791;42.828;74.582;2023-02-28T01:57:41;-2.60;99.90
35678;DHT22;21791;42.828;74.582;2023-02-28T02:00:12;-2.40;99.90
35678;DHT22;21791;42.828;74.582;2023-02-28T02:02:46;-2.40;99.90
35678;DHT22;21791;42.828;74.582;2023-02-28T02:05:19;-2.40;99.90
35678;DHT22;21791;42.828;74.582;2023-02-28T02:07:48;-2.20;99.90
35678;DHT22;21791;42.828;74.582;2023-02-28T02:10:18;-2.00;99.90
35678;DHT22;21791;42.828;74.582;2023-02-28T02:15:34;-1.50;99.90
35678;DHT22;21791;42.828;74.582;2023-02-28T02:35:46;0.70;99.90
35678;DHT22;21791;42.828;74.582;2023-02-28T02:44:04;2.20;96.60
35678;DHT22;21791;42.828;74.582;2023-02-28T02:46:37;3.00;91.30
35678;DHT22;21791;42.828;74.582;2023-02-28T02:49:08;3.50;84.30
35678;DHT22;21791;42.828;74.582;2023-02-28T02:51:36;3.90;80.40
35678;DHT22;21791;42.828;74.582;2023-02-28T02:54:10;4.00;78.90
35678;DHT22;21791;42.828;74.582;2023-02-28T02:56:40;3.40;80.90
35678;DHT22;21791;42.828;74.582;2023-02-28T02:59:11;3.10;82.70
35678;DHT22;21791;42.828;74.582;2023-02-28T03:01:39;2.80;84.70
35678;DHT22;21791;42.828;74.582;2023-02-28T03:04:13;2.50;86.60
35678;DHT22;21791;42.828;74.582;2023-02-28T03:06:42;2.80;89.50
35678;DHT22;21791;42.828;74.582;2023-02-28T03:09:08;3.60;88.60
35678;DHT22;21791;42.828;74.582;2023-02-28T03:11:38;4.60;83.60
35678;DHT22;21791;42.828;74.582;2023-02-28T03:14:36;5.50;80.50
35678;DHT22;21791;42.828;74.582;2023-02-28T03:20:07;6.50;84.10
35678;DHT22;21791;42.828;74.582;2023-02-28T03:23:01;7.40;89.30
35678;DHT22;21791;42.828;74.582;2023-02-28T03:31:00;8.70;79.30
35678;DHT22;21791;42.828;74.582;2023-02-28T03:33:51;9.30;72.10
35678;DHT22;21791;42.828;74.582;2023-02-28T03:36:25;9.40;77.10
35678;DHT22;21791;42.828;74.582;2023-02-28T03:38:59;9.80;77.60
35678;DHT22;21791;42.828;74.582;2023-02-28T03:41:49;9.90;63.50
35678;DHT22;21791;42.828;74.582;2023-02-28T03:44:32;9.80;66.90
35678;DHT22;21791;42.828;74.582;2023-02-28T03:47:16;10.00;54.20
35678;DHT22;21791;42.828;74.582;2023-02-28T03:49:51;10.60;55.80
35678;DHT22;21791;42.828;74.582;2023-02-28T03:52:20;10.30;55.50
35678;DHT22;21791;42.828;74.582;2023-02-28T03:54:54;10.50;52.90
35678;DHT22;21791;42.828;74.582;2023-02-28T04:00:04;12.10;50.20
35678;DHT22;21791;42.828;74.582;2023-02-28T04:02:33;12.00;46.00
35678;DHT22;21791;42.828;74.582;2023-02-28T04:05:00;11.10;43.60
35678;DHT22;21791;42.828;74.582;2023-02-28T04:07:30;11.60;46.70
35678;DHT22;21791;42.828;74.582;2023-02-28T04:09:57;12.10;45.60
35678;DHT22;21791;42.828;74.582;2023-02-28T04:12:23;12.20;47.20
35678;DHT22;21791;42.828;74.582;2023-02-28T04:14:50;12.30;42.10
35678;DHT22;21791;42.828;74.582;2023-02-28T04:17:17;13.30;41.60
35678;DHT22;21791;42.828;74.582;2023-02-28T04:19:44;12.60;40.60
35678;DHT22;21791;42.828;74.582;2023-02-28T04:22:11;12.80;39.80
35678;DHT22;21791;42.828;74.582;2023-02-28T04:24:37;12.70;38.50
35678;DHT22;21791;42.828;74.582;2023-02-28T04:27:08;13.20;39.30
35678;DHT22;21791;42.828;74.582;2023-02-28T04:29:35;13.80;35.30
35678;DHT22;21791;42.828;74.582;2023-02-28T04:32:03;14.40;36.30
35678;DHT22;21791;42.828;74.582;2023-02-28T04:34:31;14.00;32.30
35678;DHT22;21791;42.828;74.582;2023-02-28T04:36:59;13.40;33.50
35678;DHT22;21791;42.828;74.582;2023-02-28T04:39:26;13.40;34.10
35678;DHT22;21791;42.828;74.582;2023-02-28T04:41:52;13.80;32.90
35678;DHT22;21791;42.828;74.582;2023-02-28T04:44:19;13.60;32.10
35678;DHT22;21791;42.828;74.582;2023-02-28T04:46:48;12.30;28.80
35678;DHT22;21791;42.828;74.582;2023-02-28T04:49:16;11.90;30.70
35678;DHT22;21791;42.828;74.582;2023-02-28T04:51:43;11.00;26.90
35678;DHT22;21791;42.828;74.582;2023-02-28T04:54:09;11.00;29.10
35678;DHT22;21791;42.828;74.582;2023-02-28T04:56:36;11.40;29.20
35678;DHT22;21791;42.828;74.582;2023-02-28T04:59:02;11.20;28.00
35678;DHT22;21791;42.828;74.582;2023-02-28T05:01:33;11.80;29.30
35678;DHT22;21791;42.828;74.582;2023-02-28T05:04:02;12.00;28.90
35678;DHT22;21791;42.828;74.582;2023-02-28T05:06:33;11.50;24.90
35678;DHT22;21791;42.828;74.582;2023-02-28T05:09:00;11.60;27.50
35678;DHT22;21791;42.828;74.582;2023-02-28T05:11:29;11.80;26.40
35678;DHT22;21791;42.828;74.582;2023-02-28T05:14:05;11.90;25.30
35678;DHT22;21791;42.828;74.582;2023-02-28T05:16:33;12.40;28.60
35678;DHT22;21791;42.828;74.582;2023-02-28T05:18:59;12.70;27.90
35678;DHT22;21791;42.828;74.582;2023-02-28T05:21:39;12.30;26.90
35678;DHT22;21791;42.828;74.582;2023-02-28T05:24:11;12.50;27.50
35678;DHT22;21791;42.828;74.582;2023-02-28T05:26:40;12.70;26.90
35678;DHT22;21791;42.828;74.582;2023-02-28T05:29:06;12.30;25.70
35678;DHT22;21791;42.828;74.582;2023-02-28T05:31:33;12.00;24.40
35678;DHT22;21791;42.828;74.582;2023-02-28T05:34:00;12.10;26.20
35678;DHT22;21791;42.828;74.582;2023-02-28T05:36:27;12.80;27.80
35678;DHT22;21791;42.828;74.582;2023-02-28T05:38:53;12.70;26.40
35678;DHT22;21791;42.828;74.582;2023-02-28T05:41:20;13.00;26.10
35678;DHT22;21791;42.828;74.582;2023-02-28T05:43:47;13.60;25.30
35678;DHT22;21791;42.828;74.582;2023-02-28T05:46:15;13.70;24.80
35678;DHT22;21791;42.828;74.582;2023-02-28T05:48:45;14.00;22.60
35678;DHT22;21791;42.828;74.582;2023-02-28T05:51:11;14.30;20.50
35678;DHT22;21791;42.828;74.582;2023-02-28T05:53:38;14.70;20.80
35678;DHT22;21791;42.828;74.582;2023-02-28T05:56:04;14.90;19.90
35678;DHT22;21791;42.828;74.582;2023-02-28T05:58:31;14.60;21.40
35678;DHT22;21791;42.828;74.582;2023-02-28T06:00:59;14.00;19.40
35678;DHT22;21791;42.828;74.582;2023-02-28T06:03:27;13.00;19.40
35678;DHT22;21791;42.828;74.582;2023-02-28T06:05:53;13.60;20.60
35678;DHT22;21791;42.828;74.582;2023-02-28T06:08:21;13.50;18.20
35678;DHT22;21791;42.828;74.582;2023-02-28T06:10:47;13.40;18.90
35678;DHT22;21791;42.828;74.582;2023-02-28T06:13:13;13.00;20.90
35678;DHT22;21791;42.828;74.582;2023-02-28T06:15:41;13.50;19.10
35678;DHT22;21791;42.828;74.582;2023-02-28T06:18:07;13.10;17.50
35678;DHT22;21791;42.828;74.582;2023-02-28T06:20:34;13.00;16.70
35678;DHT22;21791;42.828;74.582;2023-02-28T06:23:02;13.30;20.20
35678;DHT22;21791;42.828;74.582;2023-02-28T06:25:28;14.30;18.40
35678;DHT22;21791;42.828;74.582;2023-02-28T06:27:55;15.20;17.60
35678;DHT22;21791;42.828;74.582;2023-02-28T06:30:22;15.20;18.20
35678;DHT22;21791;42.828;74.582;2023-02-28T06:32:54;15.20;18.00
35678;DHT22;21791;42.828;74.582;2023-02-28T06:35:22;15.00;17.70
35678;DHT22;21791;42.828;74.582;2023-02-28T06:37:49;14.60;18.70
35678;DHT22;21791;42.828;74.582;2023-02-28T06:40:15;14.10;18.60
35678;DHT22;21791;42.828;74.582;2023-02-28T06:42:42;14.10;19.70
35678;DHT22;21791;42.828;74.582;2023-02-28T06:45:10;14.60;23.30
35678;DHT22;21791;42.828;74.582;2023-02-28T06:47:38;15.00;21.10
35678;DHT22;21791;42.828;74.582;2023-02-28T06:50:06;15.20;20.00
35678;DHT22;21791;42.828;74.582;2023-02-28T06:52:33;15.90;21.90
35678;DHT22;21791;42.828;74.582;2023-02-28T06:55:02;14.90;18.80
35678;DHT22;21791;42.828;74.582;2023-02-28T06:57:35;14.30;20.50
35678;DHT22;21791;42.828;74.582;2023-02-28T07:00:07;13.60;22.00
35678;DHT22;21791;42.828;74.582;2023-02-28T07:02:35;13.90;22.60
35678;DHT22;21791;42.828;74.582;2023-02-28T07:05:04;14.50;20.50
35678;DHT22;21791;42.828;74.582;2023-02-28T07:07:31;14.80;20.70
35678;DHT22;21791;42.828;74.582;2023-02-28T07:09:58;14.50;18.20
35678;DHT22;21791;42.828;74.582;2023-02-28T07:12:25;14.50;18.80
35678;DHT22;21791;42.828;74.582;2023-02-28T07:14:51;14.80;18.50
35678;DHT22;21791;42.828;74.582;2023-02-28T07:17:18;14.80;19.10
35678;DHT22;21791;42.828;74.582;2023-02-28T07:19:45;14.90;19.70
35678;DHT22;21791;42.828;74.582;2023-02-28T07:22:11;14.70;18.90
35678;DHT22;21791;42.828;74.582;2023-02-28T07:24:38;14.80;17.30
35678;DHT22;21791;42.828;74.582;2023-02-28T07:27:04;14.80;19.50
35678;DHT22;21791;42.828;74.582;2023-02-28T07:29:31;15.30;18.70
35678;DHT22;21791;42.828;74.582;2023-02-28T07:31:57;14.40;15.80
35678;DHT22;21791;42.828;74.582;2023-02-28T07:34:24;14.10;16.30
35678;DHT22;21791;42.828;74.582;2023-02-28T07:36:55;15.10;17.20
35678;DHT22;21791;42.828;74.582;2023-02-28T07:39:22;14.60;16.70
35678;DHT22;21791;42.828;74.582;2023-02-28T07:41:49;14.30;16.30
35678;DHT22;21791;42.828;74.582;2023-02-28T07:44:15;14.40;17.10
35678;DHT22;21791;42.828;74.582;2023-02-28T07:46:42;14.60;16.70
35678;DHT22;21791;42.828;74.582;2023-02-28T07:49:08;15.30;17.80
35678;DHT22;21791;42.828;74.582;2023-02-28T07:51:35;14.80;15.60
35678;DHT22;21791;42.828;74.582;2023-02-28T07:54:02;14.30;16.20
35678;DHT22;21791;42.828;74.582;2023-02-28T07:56:29;14.30;17.50
35678;DHT22;21791;42.828;74.582;2023-02-28T07:58:55;14.20;17.40
35678;DHT22;21791;42.828;74.582;2023-02-28T08:01:22;14.50;17.50
35678;DHT22;21791;42.828;74.582;2023-02-28T08:03:48;14.00;16.40
35678;DHT22;21791;42.828;74.582;2023-02-28T08:06:23;14.20;17.60
35678;DHT22;21791;42.828;74.582;2023-02-28T08:08:51;14.40;18.70
35678;DHT22;21791;42.828;74.582;2023-02-28T08:11:18;15.20;16.50
35678;DHT22;21791;42.828;74.582;2023-02-28T08:13:45;15.70;17.30
35678;DHT22;21791;42.828;74.582;2023-02-28T08:16:13;15.30;14.90
35678;DHT22;21791;42.828;74.582;2023-02-28T08:18:49;15.10;15.50
35678;DHT22;21791;42.828;74.582;2023-02-28T08:21:15;15.00;15.70
35678;DHT22;21791;42.828;74.582;2023-02-28T08:23:42;15.40;16.20
35678;DHT22;21791;42.828;74.582;2023-02-28T08:26:08;14.90;15.80
35678;DHT22;21791;42.828;74.582;2023-02-28T08:28:35;15.10;16.40
35678;DHT22;21791;42.828;74.582;2023-02-28T08:31:07;14.50;18.90
35678;DHT22;21791;42.828;74.582;2023-02-28T08:33:35;14.90;20.40
35678;DHT22;21791;42.828;74.582;2023-02-28T08:36:02;15.00;22.50
35678;DHT22;21791;42.828;74.582;2023-02-28T08:38:28;14.80;21.50
35678;DHT22;21791;42.828;74.582;2023-02-28T08:41:04;15.00;20.30
35678;DHT22;21791;42.828;74.582;2023-02-28T08:43:35;15.00;20.50
35678;DHT22;21791;42.828;74.582;2023-02-28T08:46:02;15.40;20.20
35678;DHT22;21791;42.828;74.582;2023-02-28T08:48:32;15.00;21.70
35678;DHT22;21791;42.828;74.582;2023-02-28T08:51:01;15.10;21.60
35678;DHT22;21791;42.828;74.582;2023-02-28T08:53:28;14.90;20.90
35678;DHT22;21791;42.828;74.582;2023-02-28T08:55:59;15.20;20.60
35678;DHT22;21791;42.828;74.582;2023-02-28T08:58:27;14.30;21.30
35678;DHT22;21791;42.828;74.582;2023-02-28T09:00:54;13.90;21.00
35678;DHT22;21791;42.828;74.582;2023-02-28T09:03:22;13.40;20.90
35678;DHT22;21791;42.828;74.582;2023-02-28T09:05:58;13.50;20.20
35678;DHT22;21791;42.828;74.582;2023-02-28T09:08:27;14.50;20.10
35678;DHT22;21791;42.828;74.582;2023-02-28T09:10:55;14.90;18.80
35678;DHT22;21791;42.828;74.582;2023-02-28T09:13:25;14.50;19.60
35678;DHT22;21791;42.828;74.582;2023-02-28T09:15:52;14.60;19.80
35678;DHT22;21791;42.828;74.582;2023-02-28T09:18:19;14.50;18.30
35678;DHT22;21791;42.828;74.582;2023-02-28T09:20:46;13.70;18.30
35678;DHT22;21791;42.828;74.582;2023-02-28T09:23:13;13.90;18.50
35678;DHT22;21791;42.828;74.582;2023-02-28T09:25:46;14.70;20.30
35678;DHT22;21791;42.828;74.582;2023-02-28T09:28:13;14.30;19.70
35678;DHT22;21791;42.828;74.582;2023-02-28T09:30:42;14.40;20.30
35678;DHT22;21791;42.828;74.582;2023-02-28T09:33:09;14.20;21.60
35678;DHT22;21791;42.828;74.582;2023-02-28T09:35:36;14.00;21.60
35678;DHT22;21791;42.828;74.582;2023-02-28T09:38:04;14.30;21.40
35678;DHT22;21791;42.828;74.582;2023-02-28T09:40:31;13.80;21.70
35678;DHT22;21791;42.828;74.582;2023-02-28T09:43:02;13.20;25.20
35678;DHT22;21791;42.828;74.582;2023-02-28T09:45:36;13.00;25.70
35678;DHT22;21791;42.828;74.582;2023-02-28T09:48:10;13.00;26.10
35678;DHT22;21791;42.828;74.582;2023-02-28T09:50:45;13.80;25.40
35678;DHT22;21791;42.828;74.582;2023-02-28T09:53:29;14.70;23.90
35678;DHT22;21791;42.828;74.582;2023-02-28T09:56:07;14.70;24.20
35678;DHT22;21791;42.828;74.582;2023-02-28T09:58:49;13.90;24.70
35678;DHT22;21791;42.828;74.582;2023-02-28T10:02:29;13.90;25.50
35678;DHT22;21791;42.828;74.582;2023-02-28T10:13:02;13.50;26.00
35678;DHT22;21791;42.828;74.582;2023-02-28T10:15:32;13.70;25.70
35678;DHT22;21791;42.828;74.582;2023-02-28T10:18:04;13.40;28.30
35678;DHT22;21791;42.828;74.582;2023-02-28T10:20:34;13.10;27.80
35678;DHT22;21791;42.828;74.582;2023-02-28T10:23:24;13.60;28.90
35678;DHT22;21791;42.828;74.582;2023-02-28T10:26:00;13.40;28.60
35678;DHT22;21791;42.828;74.582;2023-02-28T10:28:28;13.50;27.90
35678;DHT22;21791;42.828;74.582;2023-02-28T10:30:57;13.50;28.50
35678;DHT22;21791;42.828;74.582;2023-02-28T10:33:34;14.00;28.30
35678;DHT22;21791;42.828;74.582;2023-02-28T10:36:02;13.80;29.00
35678;DHT22;21791;42.828;74.582;2023-02-28T10:38:37;13.80;28.60
35678;DHT22;21791;42.828;74.582;2023-02-28T10:41:10;13.20;29.80
35678;DHT22;21791;42.828;74.582;2023-02-28T10:43:38;12.90;30.60
35678;DHT22;21791;42.828;74.582;2023-02-28T10:46:16;12.90;30.60
35678;DHT22;21791;42.828;74.582;2023-02-28T10:49:14;12.80;30.40
35678;DHT22;21791;42.828;74.582;2023-02-28T10:51:42;13.00;30.20
35678;DHT22;21791;42.828;74.582;2023-02-28T10:54:18;12.90;30.00
35678;DHT22;21791;42.828;74.582;2023-02-28T10:56:54;12.40;30.60
35678;DHT22;21791;42.828;74.582;2023-02-28T10:59:33;12.10;30.70
35678;DHT22;21791;42.828;74.582;2023-02-28T11:01:59;11.80;29.90
35678;DHT22;21791;42.828;74.582;2023-02-28T11:07:00;11.40;28.90
35678;DHT22;21791;42.828;74.582;2023-02-28T11:12:03;11.30;28.50
35678;DHT22;21791;42.828;74.582;2023-02-28T11:14:35;11.40;28.80
35678;DHT22;21791;42.828;74.582;2023-02-28T11:17:21;11.40;28.80
35678;DHT22;21791;42.828;74.582;2023-02-28T11:19:53;11.20;28.70
35678;DHT22;21791;42.828;74.582;2023-02-28T11:22:26;11.10;29.90
35678;DHT22;21791;42.828;74.582;2023-02-28T11:24:57;11.00;30.30
35678;DHT22;21791;42.828;74.582;2023-02-28T11:29:58;10.90;30.30
35678;DHT22;21791;42.828;74.582;2023-02-28T11:32:27;10.90;29.90
35678;DHT22;21791;42.828;74.582;2023-02-28T11:35:17;10.80;30.30
35678;DHT22;21791;42.828;74.582;2023-02-28T11:37:45;10.80;32.20
35678;DHT22;21791;42.828;74.582;2023-02-28T11:40:25;10.70;33.00
35678;DHT22;21791;42.828;74.582;2023-02-28T11:48:22;10.40;33.70
35678;DHT22;21791;42.828;74.582;2023-02-28T11:56:18;10.40;33.40
35678;DHT22;21791;42.828;74.582;2023-02-28T12:03:03;10.10;34.50
35678;DHT22;21791;42.828;74.582;2023-02-28T12:05:24;10.10;35.30
35678;DHT22;21791;42.828;74.582;2023-02-28T12:10:44;9.90;35.90
35678;DHT22;21791;42.828;74.582;2023-02-28T12:13:26;9.80;36.40
35678;DHT22;21791;42.828;74.582;2023-02-28T12:18:35;9.80;37.50
35678;DHT22;21791;42.828;74.582;2023-02-28T12:21:44;9.70;38.00
35678;DHT22;21791;42.828;74.582;2023-02-28T12:24:44;9.60;38.10
35678;DHT22;21791;42.828;74.582;2023-02-28T12:27:17;9.30;39.00
35678;DHT22;21791;42.828;74.582;2023-02-28T12:29:50;9.10;39.80
35678;DHT22;21791;42.828;74.582;2023-02-28T12:32:41;8.70;40.80
35678;DHT22;21791;42.828;74.582;2023-02-28T12:35:14;8.50;42.60
35678;DHT22;21791;42.828;74.582;2023-02-28T12:37:54;8.50;43.00
35678;DHT22;21791;42.828;74.582;2023-02-28T12:40:25;8.60;43.40
35678;DHT22;21791;42.828;74.582;2023-02-28T12:42:59;8.60;43.90
35678;DHT22;21791;42.828;74.582;2023-02-28T12:45:48;8.50;44.10
35678;DHT22;21791;42.828;74.582;2023-02-28T12:48:30;8.30;44.80
35678;DHT22;21791;42.828;74.582;2023-02-28T12:51:01;8.00;45.50
35678;DHT22;21791;42.828;74.582;2023-02-28T13:22:41;5.50;66.60
35678;DHT22;21791;42.828;74.582;2023-02-28T13:27:50;5.10;77.10
35678;DHT22;21791;42.828;74.582;2023-02-28T13:33:31;5.00;86.50
35678;DHT22;21791;42.828;74.582;2023-02-28T13:38:46;5.50;86.00
35678;DHT22;21791;42.828;74.582;2023-02-28T13:44:21;5.60;86.80
35678;DHT22;21791;42.828;74.582;2023-02-28T13:51:48;5.70;91.90
35678;DHT22;21791;42.828;74.582;2023-02-28T14:06:30;6.20;92.80
35678;DHT22;21791;42.828;74.582;2023-02-28T14:09:24;6.20;93.10
35678;DHT22;21791;42.828;74.582;2023-02-28T14:11:52;6.20;93.20
35678;DHT22;21791;42.828;74.582;2023-02-28T14:17:05;6.10;93.20
35678;DHT22;21791;42.828;74.582;2023-02-28T14:19:36;6.00;92.80
35678;DHT22;21791;42.828;74.582;2023-02-28T14:25:11;5.50;96.40
35678;DHT22;21791;42.828;74.582;2023-02-28T14:28:20;5.10;97.80
35678;DHT22;21791;42.828;74.582;2023-02-28T14:31:15;4.70;99.90
35678;DHT22;21791;42.828;74.582;2023-02-28T14:36:41;4.40;99.90
35678;DHT22;21791;42.828;74.582;2023-02-28T14:39:22;4.40;99.90
35678;DHT22;21791;42.828;74.582;2023-02-28T14:41:49;4.50;99.90
35678;DHT22;21791;42.828;74.582;2023-02-28T14:46:52;4.70;99.90
35678;DHT22;21791;42.828;74.582;2023-02-28T14:49:31;4.90;98.70
35678;DHT22;21791;42.828;74.582;2023-02-28T14:52:17;5.10;96.90
35678;DHT22;21791;42.828;74.582;2023-02-28T14:54:44;5.20;94.80
35678;DHT22;21791;42.828;74.582;2023-02-28T14:57:30;5.10;95.20
35678;DHT22;21791;42.828;74.582;2023-02-28T14:59:59;5.10;95.30
35678;DHT22;21791;42.828;74.582;2023-02-28T15:02:29;4.60;97.50
35678;DHT22;21791;42.828;74.582;2023-02-28T15:04:58;4.30;98.50
35678;DHT22;21791;42.828;74.582;2023-02-28T15:07:26;3.90;99.90
35678;DHT22;21791;42.828;74.582;2023-02-28T15:12:53;3.90;98.80
35678;DHT22;21791;42.828;74.582;2023-02-28T15:15:23;4.10;96.90
35678;DHT22;21791;42.828;74.582;2023-02-28T15:17:53;4.10;95.60
35678;DHT22;21791;42.828;74.582;2023-02-28T15:20:22;4.00;94.30
35678;DHT22;21791;42.828;74.582;2023-02-28T15:22:51;4.40;91.20
35678;DHT22;21791;42.828;74.582;2023-02-28T15:25:20;4.50;90.30
35678;DHT22;21791;42.828;74.582;2023-02-28T15:27:53;4.40;90.80
35678;DHT22;21791;42.828;74.582;2023-02-28T15:30:26;4.30;90.30
35678;DHT22;21791;42.828;74.582;2023-02-28T15:33:24;4.30;90.40
35678;DHT22;21791;42.828;74.582;2023-02-28T15:35:51;4.10;91.80
35678;DHT22;21791;42.828;74.582;2023-02-28T15:38:36;4.10;92.00
35678;DHT22;21791;42.828;74.582;2023-02-28T15:41:03;4.00;93.00
35678;DHT22;21791;42.828;74.582;2023-02-28T15:43:37;3.80;93.50
35678;DHT22;21791;42.828;74.582;2023-02-28T15:46:10;3.70;93.70
35678;DHT22;21791;42.828;74.582;2023-02-28T15:48:43;3.60;93.70
35678;DHT22;21791;42.828;74.582;2023-02-28T15:51:25;3.60;94.40
35678;DHT22;21791;42.828;74.582;2023-02-28T15:54:08;3.50;96.30
35678;DHT22;21791;42.828;74.582;2023-02-28T15:56:46;3.20;97.30
35678;DHT22;21791;42.828;74.582;2023-02-28T15:59:22;3.00;98.30
35678;DHT22;21791;42.828;74.582;2023-02-28T16:02:16;3.00;98.10
35678;DHT22;21791;42.828;74.582;2023-02-28T16:04:58;3.20;97.40
35678;DHT22;21791;42.828;74.582;2023-02-28T16:07:25;3.30;97.50
35678;DHT22;21791;42.828;74.582;2023-02-28T16:09:52;3.20;99.00
35678;DHT22;21791;42.828;74.582;2023-02-28T16:12:21;3.20;97.80
35678;DHT22;21791;42.828;74.582;2023-02-28T16:14:52;3.00;99.10
35678;DHT22;21791;42.828;74.582;2023-02-28T16:17:25;2.90;97.50
35678;DHT22;21791;42.828;74.582;2023-02-28T16:19:53;3.00;96.40
35678;DHT22;21791;42.828;74.582;2023-02-28T16:22:20;3.10;95.90
35678;DHT22;21791;42.828;74.582;2023-02-28T16:24:47;3.20;95.60
35678;DHT22;21791;42.828;74.582;2023-02-28T16:27:29;3.10;94.80
35678;DHT22;21791;42.828;74.582;2023-02-28T16:29:56;3.10;94.70
35678;DHT22;21791;42.828;74.582;2023-02-28T16:32:23;3.20;93.00
35678;DHT22;21791;42.828;74.582;2023-02-28T16:34:49;3.40;92.70
35678;DHT22;21791;42.828;74.582;2023-02-28T16:37:17;3.40;91.80
35678;DHT22;21791;42.828;74.582;2023-02-28T16:39:45;3.40;92.10
35678;DHT22;21791;42.828;74.582;2023-02-28T16:42:16;3.40;91.00
35678;DHT22;21791;42.828;74.582;2023-02-28T16:44:48;3.40;90.70
35678;DHT22;21791;42.828;74.582;2023-02-28T16:47:14;3.40;87.90
35678;DHT22;21791;42.828;74.582;2023-02-28T16:49:41;3.40;90.00
35678;DHT22;21791;42.828;74.582;2023-02-28T16:52:10;3.70;84.00
35678;DHT22;21791;42.828;74.582;2023-02-28T16:54:38;4.00;83.30
35678;DHT22;21791;42.828;74.582;2023-02-28T16:57:07;3.70;83.20
35678;DHT22;21791;42.828;74.582;2023-02-28T16:59:39;4.00;79.00
35678;DHT22;21791;42.828;74.582;2023-02-28T17:02:13;3.80;79.10
35678;DHT22;21791;42.828;74.582;2023-02-28T17:04:40;3.60;79.30
35678;DHT22;21791;42.828;74.582;2023-02-28T17:07:12;3.80;78.90
35678;DHT22;21791;42.828;74.582;2023-02-28T17:09:40;4.00;76.10
35678;DHT22;21791;42.828;74.582;2023-02-28T17:12:07;3.80;75.90
35678;DHT22;21791;42.828;74.582;2023-02-28T17:14:34;3.80;74.50
35678;DHT22;21791;42.828;74.582;2023-02-28T17:17:01;4.00;73.80
35678;DHT22;21791;42.828;74.582;2023-02-28T17:19:27;4.00;72.80
35678;DHT22;21791;42.828;74.582;2023-02-28T17:21:57;4.00;73.50
35678;DHT22;21791;42.828;74.582;2023-02-28T17:24:23;4.10;73.80
35678;DHT22;21791;42.828;74.582;2023-02-28T17:26:50;4.10;73.90
35678;DHT22;21791;42.828;74.582;2023-02-28T17:29:19;4.20;73.80
35678;DHT22;21791;42.828;74.582;2023-02-28T17:31:46;4.10;75.00
35678;DHT22;21791;42.828;74.582;2023-02-28T17:34:13;4.20;74.40
35678;DHT22;21791;42.828;74.582;2023-02-28T17:36:45;4.20;74.30
35678;DHT22;21791;42.828;74.582;2023-02-28T17:39:13;4.30;74.20
35678;DHT22;21791;42.828;74.582;2023-02-28T17:41:41;4.20;74.30
35678;DHT22;21791;42.828;74.582;2023-02-28T17:44:08;4.00;75.70
35678;DHT22;21791;42.828;74.582;2023-02-28T17:46:36;3.80;76.30
35678;DHT22;21791;42.828;74.582;2023-02-28T17:49:03;3.70;77.40
35678;DHT22;21791;42.828;74.582;2023-02-28T17:51:29;3.60;77.00
35678;DHT22;21791;42.828;74.582;2023-02-28T17:53:56;3.60;76.80
35678;DHT22;21791;42.828;74.582;2023-02-28T17:56:25;3.70;76.90
35678;DHT22;21791;42.828;74.582;2023-02-28T17:58:53;3.70;76.20
35678;DHT22;21791;42.828;74.582;2023-02-28T18:01:21;3.80;76.00
35678;DHT22;21791;42.828;74.582;2023-02-28T18:03:48;3.60;77.40
35678;DHT22;21791;42.828;74.582;2023-02-28T18:06:21;3.60;78.30
35678;DHT22;21791;42.828;74.582;2023-02-28T18:08:48;3.70;76.30
35678;DHT22;21791;42.828;74.582;2023-02-28T18:11:18;3.50;79.60
35678;DHT22;21791;42.828;74.582;2023-02-28T18:13:50;3.50;80.90